createdAt,value
2023-05-01T00:00:38.054Z,101184.54
2023-05-01T00:03:18.267Z,101181.58
2023-05-01T00:05:46.572Z,101182.05
2023-05-01T00:08:14.960Z,101175.63
2023-05-01T00:10:43.120Z,101173.20
2023-05-01T00:13:11.597Z,101173.02
2023-05-01T00:15:42.228Z,101174.04
2023-05-01T00:18:10.342Z,101172.98
2023-05-01T00:20:38.475Z,101173.48
2023-05-01T00:23:07.264Z,101179.68
2023-05-01T00:25:35.430Z,101173.64
2023-05-01T00:28:03.809Z,101176.55
2023-05-01T00:30:35.774Z,101177.39
2023-05-01T00:33:04.224Z,101173.55
2023-05-01T00:35:32.628Z,101171.64
2023-05-01T00:38:00.801Z,101167.16
2023-05-01T00:40:29.085Z,101167.12
2023-05-01T00:42:58.170Z,101167.94
2023-05-01T00:45:26.241Z,101164.12
2023-05-01T00:47:54.640Z,101166.52
2023-05-01T00:50:23.104Z,101169.24
2023-05-01T00:52:51.271Z,101168.38
2023-05-01T00:55:19.548Z,101163.52
2023-05-01T00:57:47.827Z,101164.55
2023-05-01T01:00:17.115Z,101162.98
2023-05-01T01:02:46.798Z,101159.67
2023-05-01T01:05:17.150Z,101158.80
2023-05-01T01:08:06.006Z,101160.33
2023-05-01T01:10:55.169Z,101160.63
2023-05-01T01:13:30.888Z,101165.08
2023-05-01T01:16:34.557Z,101160.21
2023-05-01T01:19:13.242Z,101158.27
2023-05-01T01:21:47.609Z,101158.79
2023-05-01T01:24:53.716Z,101157.37
2023-05-01T01:27:45.856Z,101158.05
2023-05-01T01:30:18.329Z,101154.79
2023-05-01T01:33:20.800Z,101153.73
2023-05-01T01:35:58.402Z,101146.81
2023-05-01T01:38:41.005Z,101145.81
2023-05-01T01:41:21.748Z,101141.83
2023-05-01T01:44:01.823Z,101139.90
2023-05-01T01:46:37.194Z,101133.52
2023-05-01T01:49:08.892Z,101136.80
2023-05-01T01:51:38.323Z,101130.06
2023-05-01T01:54:07.005Z,101129.20
2023-05-01T01:56:38.151Z,101127.67
2023-05-01T01:59:07.343Z,101127.83
2023-05-01T02:01:37.568Z,101127.11
2023-05-01T02:04:06.274Z,101126.92
2023-05-01T02:06:35.600Z,101127.07
2023-05-01T02:09:06.672Z,101131.35
2023-05-01T02:11:37.622Z,101125.61
2023-05-01T02:14:06.719Z,101123.19
2023-05-01T02:16:35.657Z,101119.40
2023-05-01T02:19:05.009Z,101115.96
2023-05-01T02:21:34.723Z,101115.08
2023-05-01T02:24:04.222Z,101111.98
2023-05-01T02:26:59.839Z,101109.21
2023-05-01T02:29:29.040Z,101113.48
2023-05-01T02:31:57.411Z,101112.08
2023-05-01T02:34:26.200Z,101111.56
2023-05-01T02:36:54.374Z,101105.55
2023-05-01T02:39:23.057Z,101104.75
2023-05-01T02:41:53.686Z,101104.09
2023-05-01T02:44:23.781Z,101102.35
2023-05-01T02:46:53.985Z,101099.24
2023-05-01T02:49:23.193Z,101098.71
2023-05-01T02:51:51.598Z,101096.11
2023-05-01T02:54:20.178Z,101090.77
2023-05-01T02:56:48.367Z,101095.75
2023-05-01T02:59:16.725Z,101094.02
2023-05-01T03:01:45.061Z,101093.84
2023-05-01T03:04:13.455Z,101092.80
2023-05-01T03:06:42.067Z,101095.02
2023-05-01T03:09:10.448Z,101095.52
2023-05-01T03:11:38.614Z,101096.19
2023-05-01T03:14:06.789Z,101102.03
2023-05-01T03:16:35.006Z,101103.77
2023-05-01T03:19:03.232Z,101100.65
2023-05-01T03:21:32.222Z,101098.21
2023-05-01T03:24:00.718Z,101093.39
2023-05-01T03:26:29.078Z,101092.30
2023-05-01T03:28:57.249Z,101090.93
2023-05-01T03:31:26.170Z,101082.67
2023-05-01T03:33:55.128Z,101077.16
2023-05-01T03:36:23.604Z,101076.48
2023-05-01T03:38:52.394Z,101078.34
2023-05-01T03:41:21.698Z,101081.77
2023-05-01T03:44:12.921Z,101084.88
2023-05-01T03:46:44.690Z,101085.55
2023-05-01T03:49:18.565Z,101081.61
2023-05-01T03:51:49.043Z,101080.06
2023-05-01T03:54:17.402Z,101082.65
2023-05-01T03:57:12.070Z,101079.38
2023-05-01T03:59:40.342Z,101076.30
2023-05-01T04:02:08.537Z,101074.59
2023-05-01T04:04:37.314Z,101075.48
2023-05-01T04:07:05.883Z,101075.23
2023-05-01T04:09:34.268Z,101074.11
2023-05-01T04:12:06.138Z,101078.46
2023-05-01T04:14:34.292Z,101075.56
2023-05-01T04:17:03.084Z,101069.94
2023-05-01T04:19:35.034Z,101070.52
2023-05-01T04:22:03.926Z,101069.55
2023-05-01T04:24:33.227Z,101067.36
2023-05-01T04:27:01.300Z,101070.86
2023-05-01T04:29:29.470Z,101074.55
2023-05-01T04:31:58.632Z,101074.25
2023-05-01T04:34:29.494Z,101070.30
2023-05-01T04:36:57.575Z,101068.77
2023-05-01T04:39:25.737Z,101066.73
2023-05-01T04:41:54.532Z,101063.33
2023-05-01T04:44:22.915Z,101063.73
2023-05-01T04:46:51.646Z,101060.31
2023-05-01T04:49:22.315Z,101060.89
2023-05-01T04:51:51.004Z,101059.04
2023-05-01T04:54:19.701Z,101058.04
2023-05-01T04:56:48.265Z,101061.70
2023-05-01T04:59:17.666Z,101063.28
2023-05-01T05:01:46.124Z,101061.42
2023-05-01T05:04:14.667Z,101059.05
2023-05-01T05:06:43.030Z,101054.39
2023-05-01T05:09:16.977Z,101055.61
2023-05-01T05:11:47.460Z,101055.80
2023-05-01T05:14:22.566Z,101048.38
2023-05-01T05:16:51.924Z,101043.70
2023-05-01T05:19:20.970Z,101043.53
2023-05-01T05:21:49.139Z,101042.65
2023-05-01T05:24:17.924Z,101046.80
2023-05-01T05:26:46.009Z,101045.38
2023-05-01T05:29:14.574Z,101039.81
2023-05-01T05:31:43.724Z,101038.57
2023-05-01T05:34:12.559Z,101035.38
2023-05-01T05:36:40.947Z,101037.40
2023-05-01T05:39:09.418Z,101037.36
2023-05-01T05:41:37.999Z,101036.24
2023-05-01T05:44:06.171Z,101034.61
2023-05-01T05:46:34.480Z,101038.02
2023-05-01T05:49:02.776Z,101034.67
2023-05-01T05:51:32.059Z,101034.60
2023-05-01T05:54:01.536Z,101033.48
2023-05-01T05:56:34.924Z,101033.42
2023-05-01T05:59:06.675Z,101027.61
2023-05-01T06:01:35.160Z,101028.73
2023-05-01T06:04:03.797Z,101026.04
2023-05-01T06:06:33.175Z,101026.61
2023-05-01T06:09:03.136Z,101026.46
2023-05-01T06:11:31.946Z,101021.30
2023-05-01T06:14:02.896Z,101021.67
2023-05-01T06:16:31.315Z,101021.15
2023-05-01T06:18:59.629Z,101017.66
2023-05-01T06:21:27.908Z,101013.52
2023-05-01T06:23:56.081Z,101015.63
2023-05-01T06:26:27.338Z,101008.30
2023-05-01T06:28:56.567Z,101007.58
2023-05-01T06:31:25.458Z,101006.66
2023-05-01T06:33:55.736Z,101005.89
2023-05-01T06:36:29.638Z,101004.59
2023-05-01T06:38:57.783Z,101007.31
2023-05-01T06:41:27.005Z,101005.56
2023-05-01T06:43:56.108Z,101001.92
2023-05-01T06:46:24.330Z,101001.56
2023-05-01T06:48:52.753Z,100996.64
2023-05-01T06:51:21.019Z,100996.38
2023-05-01T06:53:49.198Z,100993.02
2023-05-01T06:56:17.781Z,100993.79
2023-05-01T06:58:45.961Z,100992.14
2023-05-01T07:01:14.461Z,100985.94
2023-05-01T07:03:42.667Z,100990.16
2023-05-01T07:06:10.994Z,100983.92
2023-05-01T07:08:39.064Z,100983.58
2023-05-01T07:11:07.935Z,100986.04
2023-05-01T07:13:36.112Z,100983.95
2023-05-01T07:16:04.502Z,100982.31
2023-05-01T07:18:32.867Z,100982.85
2023-05-01T07:21:00.936Z,100982.84
2023-05-01T07:23:29.317Z,100979.11
2023-05-01T07:25:57.794Z,100978.05
2023-05-01T07:28:25.875Z,100976.84
2023-05-01T07:30:54.031Z,100973.48
2023-05-01T07:33:23.526Z,100973.23
2023-05-01T07:35:52.329Z,100972.89
2023-05-01T07:38:20.505Z,100972.09
2023-05-01T07:40:48.567Z,100965.10
2023-05-01T07:43:17.050Z,100961.27
2023-05-01T07:45:56.288Z,100959.08
2023-05-01T07:48:25.498Z,100958.75
2023-05-01T07:50:54.566Z,100951.55
2023-05-01T07:53:23.081Z,100954.16
2023-05-01T07:55:51.638Z,100950.89
2023-05-01T07:58:19.797Z,100949.30
2023-05-01T08:00:48.073Z,100942.83
2023-05-01T08:03:16.401Z,100947.91
2023-05-01T08:05:44.929Z,100945.05
2023-05-01T08:08:19.425Z,100949.03
2023-05-01T08:10:48.354Z,100941.58
2023-05-01T08:13:16.719Z,100937.12
2023-05-01T08:15:48.317Z,100940.34
2023-05-01T08:18:20.640Z,100938.14
2023-05-01T08:20:49.247Z,100934.38
2023-05-01T08:23:17.812Z,100937.10
2023-05-01T08:25:47.137Z,100934.30
2023-05-01T08:28:15.295Z,100926.91
2023-05-01T08:30:44.700Z,100929.39
2023-05-01T08:33:13.145Z,100930.25
2023-05-01T08:35:41.640Z,100929.73
2023-05-01T08:38:11.374Z,100933.05
2023-05-01T08:40:41.260Z,100928.71
2023-05-01T08:43:09.857Z,100925.31
2023-05-01T08:45:38.431Z,100924.60
2023-05-01T08:48:07.456Z,100928.33
2023-05-01T08:50:39.117Z,100918.06
2023-05-01T08:53:09.092Z,100921.51
2023-05-01T08:55:37.867Z,100915.64
2023-05-01T08:58:08.085Z,100918.85
2023-05-01T09:00:36.362Z,100921.22
2023-05-01T09:03:04.923Z,100916.63
2023-05-01T09:05:33.829Z,100914.52
2023-05-01T09:08:03.535Z,100914.11
2023-05-01T09:10:33.559Z,100911.78
2023-05-01T09:13:07.202Z,100911.06
2023-05-01T09:15:35.635Z,100910.48
2023-05-01T09:18:04.296Z,100906.52
2023-05-01T09:20:32.798Z,100897.80
2023-05-01T09:23:00.980Z,100897.10
2023-05-01T09:25:29.657Z,100890.98
2023-05-01T09:27:57.927Z,100891.73
2023-05-01T09:30:36.470Z,100887.02
2023-05-01T09:33:15.293Z,100883.25
2023-05-01T09:35:50.740Z,100880.91
2023-05-01T09:38:26.972Z,100877.88
2023-05-01T09:40:57.053Z,100869.58
2023-05-01T09:43:26.917Z,100869.77
2023-05-01T09:46:03.907Z,100864.25
2023-05-01T09:48:34.989Z,100858.30
2023-05-01T09:51:27.459Z,100853.77
2023-05-01T09:53:57.581Z,100848.64
2023-05-01T09:56:27.313Z,100847.96
2023-05-01T09:58:59.150Z,100842.77
2023-05-01T10:01:44.179Z,100847.22
2023-05-01T10:04:13.432Z,100842.20
2023-05-01T10:06:42.007Z,100829.37
2023-05-01T10:09:17.211Z,100832.75
2023-05-01T10:11:49.804Z,100834.77
2023-05-01T10:14:18.085Z,100825.16
2023-05-01T10:16:46.924Z,100821.02
2023-05-01T10:19:17.633Z,100816.93
2023-05-01T10:21:45.791Z,100809.30
2023-05-01T10:24:15.394Z,100805.90
2023-05-01T10:26:43.981Z,100798.66
2023-05-01T10:29:13.076Z,100790.52
2023-05-01T10:31:42.627Z,100789.29
2023-05-01T10:34:12.059Z,100790.63
2023-05-01T10:36:47.951Z,100792.06
2023-05-01T10:39:32.850Z,100791.73
2023-05-01T10:42:11.708Z,100788.83
2023-05-01T10:44:41.281Z,100794.52
2023-05-01T10:47:43.116Z,100785.55
2023-05-01T10:50:16.169Z,100781.66
2023-05-01T10:53:12.787Z,100781.64
2023-05-01T10:55:45.326Z,100773.92
2023-05-01T10:58:14.714Z,100767.98
2023-05-01T11:00:42.832Z,100763.23
2023-05-01T11:03:23.309Z,100759.73
2023-05-01T11:06:01.085Z,100752.27
2023-05-01T11:08:34.183Z,100744.29
2023-05-01T11:11:23.862Z,100725.73
2023-05-01T11:14:01.861Z,100728.16
2023-05-01T11:16:42.255Z,100726.12
2023-05-01T11:19:22.734Z,100718.10
2023-05-01T11:21:50.958Z,100716.33
2023-05-01T11:24:20.068Z,100712.21
2023-05-01T11:26:48.936Z,100708.30
2023-05-01T11:29:17.519Z,100706.80
2023-05-01T11:31:48.676Z,100706.41
2023-05-01T11:34:17.652Z,100702.48
2023-05-01T11:36:50.031Z,100693.02
2023-05-01T11:39:19.809Z,100692.82
2023-05-01T11:41:48.124Z,100689.13
2023-05-01T11:44:17.557Z,100688.02
2023-05-01T11:46:45.987Z,100691.06
2023-05-01T11:49:14.880Z,100677.37
2023-05-01T11:51:43.054Z,100682.36
2023-05-01T11:54:15.142Z,100679.42
2023-05-01T11:56:44.104Z,100677.71
2023-05-01T11:59:17.063Z,100668.19
2023-05-01T12:01:46.496Z,100664.70
2023-05-01T12:04:32.310Z,100663.08
2023-05-01T12:07:01.064Z,100657.39
2023-05-01T12:09:29.756Z,100648.93
2023-05-01T12:11:59.829Z,100648.45
2023-05-01T12:14:28.142Z,100648.20
2023-05-01T12:16:57.307Z,100651.18
2023-05-01T12:19:26.122Z,100643.42
2023-05-01T12:22:07.941Z,100642.02
2023-05-01T12:24:36.605Z,100636.85
2023-05-01T12:27:05.183Z,100638.72
2023-05-01T12:29:43.083Z,100637.05
2023-05-01T12:32:11.399Z,100636.10
2023-05-01T12:34:40.559Z,100635.63
2023-05-01T12:37:10.816Z,100625.36
2023-05-01T12:39:40.579Z,100621.80
2023-05-01T12:42:14.507Z,100611.11
2023-05-01T12:44:43.817Z,100608.15
2023-05-01T12:47:11.955Z,100605.11
2023-05-01T12:49:40.861Z,100597.36
2023-05-01T12:52:09.513Z,100596.06
2023-05-01T12:54:40.547Z,100591.48
2023-05-01T12:57:10.977Z,100584.39
2023-05-01T12:59:40.294Z,100580.85
2023-05-01T13:02:10.884Z,100576.55
2023-05-01T13:04:39.920Z,100574.30
2023-05-01T13:07:12.733Z,100568.11
2023-05-01T13:09:59.204Z,100564.84
2023-05-01T13:12:28.310Z,100556.16
2023-05-01T13:14:57.455Z,100551.86
2023-05-01T13:17:29.220Z,100544.75
2023-05-01T13:19:59.916Z,100543.54
2023-05-01T13:22:29.787Z,100541.09
2023-05-01T13:24:58.270Z,100534.31
2023-05-01T13:27:26.644Z,100527.45
2023-05-01T13:29:58.009Z,100524.80
2023-05-01T13:32:27.148Z,100525.71
2023-05-01T13:34:56.079Z,100521.36
2023-05-01T13:37:24.153Z,100519.63
2023-05-01T13:39:58.353Z,100519.48
2023-05-01T13:42:27.040Z,100517.67
2023-05-01T13:44:56.647Z,100511.77
2023-05-01T13:47:28.371Z,100501.38
2023-05-01T13:49:57.557Z,100491.67
2023-05-01T13:52:26.399Z,100494.59
2023-05-01T13:54:57.142Z,100492.42
2023-05-01T13:57:25.504Z,100491.98
2023-05-01T13:59:53.769Z,100487.92
2023-05-01T14:02:27.811Z,100486.87
2023-05-01T14:04:58.589Z,100486.73
2023-05-01T14:07:28.422Z,100485.43
2023-05-01T14:09:58.242Z,100478.96
2023-05-01T14:12:31.633Z,100477.77
2023-05-01T14:15:05.317Z,100476.37
2023-05-01T14:17:35.313Z,100468.50
2023-05-01T14:20:05.659Z,100462.41
2023-05-01T14:22:44.288Z,100461.79
2023-05-01T14:25:24.860Z,100456.15
2023-05-01T14:27:54.172Z,100449.75
2023-05-01T14:30:33.589Z,100445.49
2023-05-01T14:33:03.779Z,100443.13
2023-05-01T14:35:32.280Z,100436.92
2023-05-01T14:38:13.971Z,100434.39
2023-05-01T14:40:42.553Z,100428.91
2023-05-01T14:43:15.239Z,100434.28
2023-05-01T14:45:45.555Z,100430.78
2023-05-01T14:48:23.165Z,100419.63
2023-05-01T14:50:52.450Z,100415.36
2023-05-01T14:53:20.625Z,100410.21
2023-05-01T14:55:50.958Z,100410.69
2023-05-01T14:58:19.135Z,100407.30
2023-05-01T15:00:47.188Z,100404.03
2023-05-01T15:03:15.501Z,100395.90
2023-05-01T15:05:44.775Z,100391.64
2023-05-01T15:08:12.935Z,100387.64
2023-05-01T15:10:42.142Z,100393.75
2023-05-01T15:13:10.309Z,100390.41
2023-05-01T15:15:38.494Z,100380.08
2023-05-01T15:18:07.133Z,100379.53
2023-05-01T15:20:35.345Z,100381.39
2023-05-01T15:23:03.533Z,100380.09
2023-05-01T15:25:32.500Z,100377.88
2023-05-01T15:28:00.572Z,100380.09
2023-05-01T15:30:28.850Z,100377.45
2023-05-01T15:32:57.364Z,100365.59
2023-05-01T15:35:26.528Z,100357.77
2023-05-01T15:37:56.646Z,100355.52
2023-05-01T15:40:24.825Z,100352.78
2023-05-01T15:42:53.602Z,100351.94
2023-05-01T15:45:22.009Z,100349.84
2023-05-01T15:47:50.172Z,100352.40
2023-05-01T15:50:18.428Z,100352.76
2023-05-01T15:52:46.805Z,100352.20
2023-05-01T15:55:15.386Z,100352.64
2023-05-01T15:57:47.008Z,100353.04
2023-05-01T16:00:16.919Z,100349.34
2023-05-01T16:02:45.281Z,100351.58
2023-05-01T16:05:17.590Z,100350.80
2023-05-01T16:07:46.376Z,100350.75
2023-05-01T16:10:14.553Z,100350.16
2023-05-01T16:12:42.732Z,100353.48
2023-05-01T16:15:12.188Z,100352.40
2023-05-01T16:17:43.901Z,100352.45
2023-05-01T16:20:13.480Z,100355.39
2023-05-01T16:22:43.332Z,100348.65
2023-05-01T16:25:12.087Z,100351.15
2023-05-01T16:27:47.541Z,100353.05
2023-05-01T16:30:15.899Z,100347.73
2023-05-01T16:32:44.957Z,100348.64
2023-05-01T16:35:23.715Z,100346.45
2023-05-01T16:37:52.499Z,100352.69
2023-05-01T16:40:22.116Z,100352.58
2023-05-01T16:42:54.264Z,100348.06
2023-05-01T16:45:22.439Z,100345.21
2023-05-01T16:47:51.610Z,100343.24
2023-05-01T16:50:22.281Z,100347.70
2023-05-01T16:52:55.329Z,100348.89
2023-05-01T16:55:25.373Z,100350.73
2023-05-01T16:57:54.570Z,100347.65
2023-05-01T17:00:22.845Z,100345.52
2023-05-01T17:02:52.596Z,100345.74
2023-05-01T17:05:20.926Z,100346.71
2023-05-01T17:07:49.210Z,100349.60
2023-05-01T17:10:17.374Z,100348.67
2023-05-01T17:12:45.544Z,100348.71
2023-05-01T17:15:13.822Z,100344.30
2023-05-01T17:17:41.909Z,100346.19
2023-05-01T17:20:11.471Z,100344.85
2023-05-01T17:22:39.666Z,100348.05
2023-05-01T17:25:08.356Z,100346.59
2023-05-01T17:27:37.861Z,100346.98
2023-05-01T17:30:07.049Z,100348.41
2023-05-01T17:32:37.288Z,100345.84
2023-05-01T17:35:06.474Z,100342.44
2023-05-01T17:37:34.660Z,100337.45
2023-05-01T17:40:05.088Z,100338.58
2023-05-01T17:42:33.755Z,100339.23
2023-05-01T17:45:01.936Z,100334.69
2023-05-01T17:47:30.201Z,100334.76
2023-05-01T17:50:00.451Z,100334.02
2023-05-01T17:52:29.020Z,100336.48
2023-05-01T17:54:57.688Z,100334.29
2023-05-01T17:57:25.967Z,100335.02
2023-05-01T17:59:54.164Z,100337.04
2023-05-01T18:02:23.207Z,100331.41
2023-05-01T18:04:51.505Z,100329.62
2023-05-01T18:07:19.670Z,100328.55
2023-05-01T18:09:47.844Z,100337.77
2023-05-01T18:12:16.025Z,100339.45
2023-05-01T18:14:44.085Z,100342.83
2023-05-01T18:17:12.393Z,100341.83
2023-05-01T18:19:40.648Z,100340.42
2023-05-01T18:22:08.916Z,100337.39
2023-05-01T18:24:37.189Z,100335.15
2023-05-01T18:27:05.254Z,100338.95
2023-05-01T18:29:33.427Z,100339.95
2023-05-01T18:32:01.846Z,100338.95
2023-05-01T18:34:30.083Z,100337.11
2023-05-01T18:36:58.157Z,100337.77
2023-05-01T18:39:26.244Z,100338.73
2023-05-01T18:41:55.110Z,100338.28
2023-05-01T18:44:23.796Z,100336.88
2023-05-01T18:46:52.048Z,100339.55
2023-05-01T18:49:23.726Z,100336.56
2023-05-01T18:51:52.106Z,100340.34
2023-05-01T18:54:20.277Z,100342.03
2023-05-01T18:56:48.446Z,100343.70
2023-05-01T18:59:19.594Z,100342.08
2023-05-01T19:01:50.269Z,100342.27
2023-05-01T19:04:19.431Z,100345.83
2023-05-01T19:06:47.605Z,100343.02
2023-05-01T19:09:15.961Z,100342.06
2023-05-01T19:11:44.137Z,100341.40
2023-05-01T19:14:12.304Z,100339.05
2023-05-01T19:16:40.940Z,100340.97
2023-05-01T19:19:09.774Z,100338.86
2023-05-01T19:21:37.852Z,100335.30
2023-05-01T19:24:06.127Z,100332.40
2023-05-01T19:26:34.499Z,100330.38
2023-05-01T19:29:02.572Z,100332.27
2023-05-01T19:31:30.659Z,100334.62
2023-05-01T19:33:58.806Z,100336.83
2023-05-01T19:36:27.189Z,100332.98
2023-05-01T19:38:55.292Z,100333.39
2023-05-01T19:41:23.837Z,100334.24
2023-05-01T19:43:52.115Z,100334.61
2023-05-01T19:46:20.554Z,100331.88
2023-05-01T19:48:48.661Z,100332.83
2023-05-01T19:51:17.144Z,100333.17
2023-05-01T19:53:45.314Z,100332.00
2023-05-01T19:56:13.380Z,100330.80
2023-05-01T19:58:42.170Z,100329.30
2023-05-01T20:01:13.259Z,100326.73
2023-05-01T20:03:41.512Z,100328.27
2023-05-01T20:06:09.783Z,100328.89
2023-05-01T20:08:38.034Z,100327.23
2023-05-01T20:11:06.828Z,100332.38
2023-05-01T20:13:34.991Z,100332.33
2023-05-01T20:16:03.307Z,100331.73
2023-05-01T20:18:32.160Z,100324.96
2023-05-01T20:21:00.340Z,100325.91
2023-05-01T20:23:29.430Z,100324.73
2023-05-01T20:25:57.803Z,100329.25
2023-05-01T20:28:27.200Z,100325.10
2023-05-01T20:30:55.897Z,100323.85
2023-05-01T20:33:24.751Z,100317.84
2023-05-01T20:35:53.148Z,100320.48
2023-05-01T20:38:22.145Z,100320.41
2023-05-01T20:40:50.933Z,100319.63
2023-05-01T20:43:19.002Z,100327.27
2023-05-01T20:45:47.279Z,100325.38
2023-05-01T20:48:15.389Z,100320.69
2023-05-01T20:50:44.339Z,100323.22
2023-05-01T20:53:12.511Z,100327.70
2023-05-01T20:55:40.678Z,100327.08
2023-05-01T20:58:08.964Z,100328.14
2023-05-01T21:00:37.131Z,100328.69
2023-05-01T21:03:05.768Z,100327.17
2023-05-01T21:05:34.085Z,100328.79
2023-05-01T21:08:03.272Z,100329.38
2023-05-01T21:10:31.782Z,100327.59
2023-05-01T21:13:00.240Z,100324.54
2023-05-01T21:15:28.326Z,100329.13
2023-05-01T21:17:56.561Z,100327.92
2023-05-01T21:20:34.387Z,100324.11
2023-05-01T21:23:02.781Z,100327.02
2023-05-01T21:25:32.145Z,100330.56
2023-05-01T21:28:05.883Z,100330.41
2023-05-01T21:30:35.474Z,100335.67
2023-05-01T21:33:08.759Z,100335.61
2023-05-01T21:35:37.142Z,100334.05
2023-05-01T21:38:05.311Z,100337.04
2023-05-01T21:40:37.083Z,100335.61
2023-05-01T21:43:06.061Z,100335.45
2023-05-01T21:45:40.190Z,100335.45
2023-05-01T21:48:09.470Z,100334.30
2023-05-01T21:50:38.397Z,100331.97
2023-05-01T21:53:07.085Z,100331.73
2023-05-01T21:55:35.334Z,100330.98
2023-05-01T21:58:04.207Z,100335.04
2023-05-01T22:00:33.256Z,100331.05
2023-05-01T22:03:06.166Z,100331.88
2023-05-01T22:05:34.983Z,100331.02
2023-05-01T22:08:03.143Z,100335.66
2023-05-01T22:10:31.824Z,100333.97
2023-05-01T22:12:59.996Z,100333.12
2023-05-01T22:15:28.069Z,100332.40
2023-05-01T22:17:56.921Z,100332.13
2023-05-01T22:20:25.244Z,100334.92
2023-05-01T22:22:53.505Z,100340.00
2023-05-01T22:25:21.793Z,100337.76
2023-05-01T22:27:49.961Z,100336.84
2023-05-01T22:30:18.123Z,100338.85
2023-05-01T22:32:46.549Z,100338.77
2023-05-01T22:35:15.352Z,100334.77
2023-05-01T22:37:43.467Z,100337.43
2023-05-01T22:40:12.253Z,100335.71
2023-05-01T22:42:40.336Z,100332.34
2023-05-01T22:45:09.003Z,100330.20
2023-05-01T22:47:37.523Z,100327.68
2023-05-01T22:50:06.589Z,100331.26
2023-05-01T22:52:34.855Z,100324.33
2023-05-01T22:55:03.044Z,100322.21
2023-05-01T22:57:31.196Z,100325.61
2023-05-01T22:59:59.457Z,100324.11
2023-05-01T23:02:28.017Z,100323.84
2023-05-01T23:04:56.737Z,100326.13
2023-05-01T23:07:24.907Z,100318.80
2023-05-01T23:09:53.387Z,100318.55
2023-05-01T23:12:25.899Z,100315.15
2023-05-01T23:14:55.262Z,100314.94
2023-05-01T23:17:23.570Z,100316.98
2023-05-01T23:19:51.927Z,100316.94
2023-05-01T23:22:20.085Z,100315.79
2023-05-01T23:24:49.455Z,100311.09
2023-05-01T23:27:18.888Z,100308.67
2023-05-01T23:29:56.667Z,100307.77
2023-05-01T23:32:29.606Z,100303.16
2023-05-01T23:35:04.397Z,100304.76
2023-05-01T23:37:32.473Z,100306.18
2023-05-01T23:40:02.138Z,100302.04
2023-05-01T23:42:30.860Z,100297.41
2023-05-01T23:44:59.440Z,100298.86
2023-05-01T23:47:27.660Z,100297.17
2023-05-01T23:49:55.887Z,100293.33
2023-05-01T23:52:24.065Z,100287.62
2023-05-01T23:54:52.954Z,100286.92
2023-05-01T23:57:21.330Z,100281.48
2023-05-01T23:59:49.498Z,100279.30
